Downstream station:
SHEF ID: NFSM7 N Fork Spring River nr Purcell, MO
STATION TYPE:
STAGE RIV-FLOW
ft cfs
Ccp-Rev Ccp-Rev
(US/Central)
04/06 00:00 4.66 396
04/06 01:00 4.65 393
04/06 02:00 4.63 386
04/06 03:00 4.62 383
04/06 04:00 4.59 374
04/06 05:00 4.56 365
04/06 06:00 4.54 360
04/06 07:00 4.52 354
04/06 08:00 4.49 345
04/06 09:00 4.46 336
04/06 10:00 4.44 331
04/06 11:00 4.42 325
04/06 12:00 4.39 317
04/06 13:00 4.36 309
04/06 14:00 4.33 301
04/06 15:00 4.32 298
04/06 16:00 4.29 290
04/06 17:00 4.27 285
04/06 18:00 4.24 278
04/06 19:00 4.22 273
04/06 20:00 4.20 268
04/06 21:00 4.18 263
04/06 22:00 4.16 258
04/06 23:00 4.14 254